createdAt,value
2023-05-06T00:00:42.020Z,11.49
2023-05-06T00:10:42.003Z,11.52
2023-05-06T00:20:42.001Z,11.45
2023-05-06T00:30:41.975Z,11.43
2023-05-06T00:40:41.994Z,11.38
2023-05-06T00:50:41.963Z,11.27
2023-05-06T01:00:42.052Z,11.37
2023-05-06T01:10:41.951Z,11.48
2023-05-06T01:20:41.983Z,11.6
2023-05-06T01:30:41.926Z,11.68
2023-05-06T01:40:41.955Z,11.74
2023-05-06T01:50:41.924Z,11.77
2023-05-06T02:00:41.928Z,12.01
2023-05-06T02:10:41.927Z,11.99
2023-05-06T02:20:41.898Z,12.18
2023-05-06T02:30:41.908Z,12.1
2023-05-06T02:40:41.888Z,12.08
2023-05-06T02:50:41.894Z,11.99
2023-05-06T03:00:41.884Z,11.87
2023-05-06T03:10:41.896Z,11.83
2023-05-06T03:20:42.063Z,11.79
2023-05-06T03:30:41.864Z,11.83
2023-05-06T03:40:41.842Z,11.87
2023-05-06T03:50:41.856Z,11.79
2023-05-06T04:00:41.859Z,11.86
2023-05-06T04:10:41.860Z,11.75
2023-05-06T04:20:41.803Z,11.62
2023-05-06T04:30:41.821Z,11.7
2023-05-06T04:40:41.837Z,11.85
2023-05-06T04:50:41.809Z,12.28
2023-05-06T05:00:41.792Z,12.81
2023-05-06T05:10:41.962Z,12.81
2023-05-06T05:20:41.799Z,12.88
2023-05-06T05:30:41.796Z,13.19
2023-05-06T05:40:41.793Z,13.47
2023-05-06T05:50:41.766Z,13.85
2023-05-06T06:00:41.744Z,14.16
2023-05-06T06:10:41.743Z,14.81
2023-05-06T06:20:41.707Z,15.13
2023-05-06T06:30:41.700Z,15.56
2023-05-06T06:40:41.750Z,15.67
2023-05-06T06:50:41.658Z,16.02
2023-05-06T07:00:41.650Z,16.5
2023-05-06T07:10:41.679Z,17.12
2023-05-06T07:20:41.633Z,17.27
2023-05-06T07:30:41.671Z,18.42
2023-05-06T07:40:41.640Z,18.27
2023-05-06T07:50:41.646Z,18.48
2023-05-06T08:00:41.596Z,18.17
2023-05-06T08:10:41.615Z,18.26
2023-05-06T08:20:41.600Z,19.07
2023-05-06T08:30:41.582Z,19.68
2023-05-06T08:40:41.616Z,20.08
2023-05-06T08:50:41.569Z,20.37
2023-05-06T09:00:41.583Z,20.81
2023-05-06T09:10:41.574Z,21.71
2023-05-06T09:20:41.542Z,22.39
2023-05-06T09:30:41.626Z,22.33
2023-05-06T09:40:41.560Z,22.76
2023-05-06T09:50:41.560Z,22.84
2023-05-06T10:00:41.480Z,23.15
2023-05-06T10:10:41.517Z,23.65
2023-05-06T10:20:41.549Z,23.59
2023-05-06T10:30:41.482Z,23.88
2023-05-06T10:40:41.504Z,24.41
2023-05-06T10:50:41.478Z,25.03
2023-05-06T11:00:41.489Z,25.38
2023-05-06T11:10:41.434Z,25.73
2023-05-06T11:20:41.413Z,26.11
2023-05-06T11:30:41.461Z,26.55
2023-05-06T11:40:41.456Z,26.89
2023-05-06T11:50:41.384Z,27.23
2023-05-06T12:00:41.392Z,26.74
2023-05-06T12:10:41.389Z,24.71
2023-05-06T12:20:41.407Z,23.73
2023-05-06T12:30:41.338Z,23.33
2023-05-06T12:40:41.400Z,23.69
2023-05-06T12:50:41.380Z,23.8
2023-05-06T13:00:41.332Z,23.35
2023-05-06T13:10:41.294Z,23.22
2023-05-06T13:20:41.262Z,23.14
2023-05-06T13:30:41.342Z,23.23
2023-05-06T13:40:41.256Z,23.41
2023-05-06T13:50:41.229Z,24.45
2023-05-06T14:00:41.206Z,24.88
2023-05-06T14:10:41.209Z,26.22
2023-05-06T14:20:41.213Z,25.41
2023-05-06T14:30:41.184Z,24.15
2023-05-06T14:40:41.196Z,23.51
2023-05-06T14:50:41.149Z,22.86
2023-05-06T15:00:41.120Z,22.03
2023-05-06T15:10:41.150Z,21.32
2023-05-06T15:20:41.134Z,20.84
2023-05-06T15:30:41.141Z,20.4
2023-05-06T15:40:41.157Z,20.24
2023-05-06T15:50:41.097Z,18.66
2023-05-06T16:00:41.074Z,15.54
2023-05-06T16:10:41.096Z,14.54
2023-05-06T16:20:41.062Z,14.15
2023-05-06T16:30:41.076Z,13.79
2023-05-06T16:40:41.042Z,13.89
2023-05-06T16:50:41.035Z,14.04
2023-05-06T17:00:41.016Z,14.23
2023-05-06T17:10:41.030Z,14.22
2023-05-06T17:20:51.947Z,14.26
2023-05-06T17:30:41.048Z,14.27
2023-05-06T17:40:41.018Z,14.08
2023-05-06T17:50:40.972Z,13.96
2023-05-06T18:00:40.968Z,13.86
2023-05-06T18:10:41.546Z,13.67
2023-05-06T18:20:40.983Z,13.57
2023-05-06T18:30:40.966Z,13.47
2023-05-06T18:40:40.961Z,13.21
2023-05-06T18:50:40.961Z,13.07
2023-05-06T19:00:41.042Z,12.94
2023-05-06T19:10:40.991Z,12.88
2023-05-06T19:20:40.950Z,12.63
2023-05-06T19:30:41.008Z,12.6
2023-05-06T19:40:40.936Z,12.92
2023-05-06T19:50:40.921Z,13.04
2023-05-06T20:00:40.912Z,12.87
2023-05-06T20:10:40.908Z,12.94
2023-05-06T20:20:40.917Z,12.89
2023-05-06T20:30:40.905Z,12.85
2023-05-06T20:40:40.928Z,12.92
2023-05-06T20:50:40.878Z,12.91
2023-05-06T21:00:40.873Z,12.89
2023-05-06T21:10:40.867Z,12.89
2023-05-06T21:20:40.833Z,12.83
2023-05-06T21:30:41.053Z,12.83
2023-05-06T21:40:40.806Z,12.77
2023-05-06T21:50:40.826Z,12.7
2023-05-06T22:00:40.800Z,12.51
2023-05-06T22:10:40.809Z,12.51
2023-05-06T22:20:40.794Z,12.61
2023-05-06T22:30:40.839Z,12.51
2023-05-06T22:40:40.794Z,12.32
2023-05-06T22:50:45.756Z,12.28
2023-05-06T23:10:40.748Z,12.3
2023-05-06T23:20:40.727Z,12.32
2023-05-06T23:30:40.793Z,12.17
2023-05-06T23:40:40.762Z,11.94
2023-05-06T23:50:40.758Z,12.02
